createdAt,value
2017-11-16T00:02:02.637Z,47.75
2017-11-16T00:04:30.871Z,61.42
2017-11-16T00:06:58.353Z,48.53
2017-11-16T00:09:25.823Z,53.97
2017-11-16T00:11:53.289Z,56.70
2017-11-16T00:14:20.788Z,56.55
2017-11-16T00:16:48.327Z,58.20
2017-11-16T00:19:16.582Z,51.45
2017-11-16T00:21:44.143Z,58.25
2017-11-16T00:24:11.626Z,57.30
2017-11-16T00:26:39.154Z,58.97
2017-11-16T00:29:06.643Z,58.67
2017-11-16T00:31:34.883Z,61.13
2017-11-16T00:34:02.396Z,60.60
2017-11-16T00:36:29.873Z,51.95
2017-11-16T00:38:57.357Z,63.38
2017-11-16T00:41:24.839Z,48.25
2017-11-16T00:43:53.084Z,55.38
2017-11-16T00:46:20.562Z,54.95
2017-11-16T00:48:48.808Z,60.92
2017-11-16T00:51:16.280Z,63.72
2017-11-16T00:53:43.761Z,64.57
2017-11-16T00:56:11.995Z,51.22
2017-11-16T00:58:39.571Z,54.05
2017-11-16T01:01:07.038Z,49.53
2017-11-16T01:03:35.274Z,54.70
2017-11-16T01:06:02.779Z,50.50
2017-11-16T01:08:31.011Z,61.03
2017-11-16T01:10:58.495Z,44.47
2017-11-16T01:13:26.762Z,52.20
2017-11-16T01:15:54.241Z,44.45
2017-11-16T01:18:21.782Z,48.28
2017-11-16T01:20:49.263Z,47.42
2017-11-16T01:23:17.527Z,53.53
2017-11-16T01:25:45.797Z,48.05
2017-11-16T01:28:13.270Z,51.63
2017-11-16T01:30:41.516Z,44.92
2017-11-16T01:33:08.991Z,58.92
2017-11-16T01:35:37.230Z,56.33
2017-11-16T01:38:04.699Z,51.95
2017-11-16T01:40:32.225Z,64.37
2017-11-16T01:42:59.702Z,53.58
2017-11-16T01:45:27.187Z,56.90
2017-11-16T01:47:54.747Z,50.38
2017-11-16T01:50:22.216Z,48.53
2017-11-16T01:52:50.463Z,56.35
2017-11-16T01:55:18.040Z,53.85
2017-11-16T01:57:46.317Z,54.42
2017-11-16T02:00:14.553Z,47.78
2017-11-16T02:02:42.045Z,63.33
2017-11-16T02:05:09.516Z,47.10
2017-11-16T02:07:37.758Z,48.25
2017-11-16T02:10:05.222Z,54.95
2017-11-16T02:12:32.791Z,43.83
2017-11-16T02:15:00.267Z,52.33
2017-11-16T02:17:28.496Z,48.25
2017-11-16T02:19:55.972Z,54.25
2017-11-16T02:22:23.443Z,48.55
2017-11-16T02:24:51.762Z,52.05
2017-11-16T02:27:19.322Z,50.30
2017-11-16T02:29:46.833Z,45.33
2017-11-16T02:32:14.314Z,50.97
2017-11-16T02:34:41.810Z,44.75
2017-11-16T02:37:09.282Z,45.35
2017-11-16T02:39:36.758Z,39.90
2017-11-16T02:42:04.313Z,56.35
2017-11-16T02:44:31.798Z,47.78
2017-11-16T02:47:00.033Z,47.55
2017-11-16T02:49:27.606Z,45.05
2017-11-16T02:51:55.085Z,45.03
2017-11-16T02:54:23.610Z,52.08
2017-11-16T02:56:51.095Z,48.78
2017-11-16T02:59:18.562Z,42.85
2017-11-16T03:01:46.829Z,44.00
2017-11-16T03:04:14.306Z,44.55
2017-11-16T03:06:42.567Z,44.95
2017-11-16T03:09:10.043Z,40.47
2017-11-16T03:11:38.282Z,54.25
2017-11-16T03:14:05.763Z,50.65
2017-11-16T03:16:33.997Z,52.30
2017-11-16T03:19:01.494Z,41.30
2017-11-16T03:21:29.746Z,48.78
2017-11-16T03:23:57.213Z,44.05
2017-11-16T03:26:24.686Z,46.85
2017-11-16T03:28:52.942Z,54.25
2017-11-16T03:31:20.424Z,47.80
2017-11-16T03:33:48.681Z,48.45
2017-11-16T03:36:16.245Z,43.10
2017-11-16T03:38:44.497Z,55.88
2017-11-16T03:41:11.982Z,45.40
2017-11-16T03:43:40.226Z,51.97
2017-11-16T03:46:07.711Z,47.72
2017-11-16T03:48:35.961Z,42.60
2017-11-16T03:51:03.466Z,44.00
2017-11-16T03:53:30.961Z,45.90
2017-11-16T03:55:58.434Z,47.53
2017-11-16T03:58:25.924Z,44.83
2017-11-16T04:00:54.172Z,46.95
2017-11-16T04:03:21.651Z,43.87
2017-11-16T04:05:49.899Z,45.90
2017-11-16T04:08:17.492Z,44.33
2017-11-16T04:10:45.726Z,41.97
2017-11-16T04:13:13.209Z,48.45
2017-11-16T04:15:41.491Z,48.60
2017-11-16T04:18:09.763Z,47.22
2017-11-16T04:20:38.033Z,58.17
2017-11-16T04:23:05.511Z,56.75
2017-11-16T04:25:33.773Z,48.50
2017-11-16T04:28:02.157Z,61.30
2017-11-16T04:30:30.424Z,71.45
2017-11-16T04:32:57.898Z,77.93
2017-11-16T04:35:26.140Z,65.60
2017-11-16T04:37:53.645Z,59.17
2017-11-16T04:40:21.116Z,64.53
2017-11-16T04:42:48.618Z,72.95
2017-11-16T04:45:16.101Z,68.15
2017-11-16T04:47:44.333Z,82.05
2017-11-16T04:50:11.825Z,75.05
2017-11-16T04:52:40.065Z,63.65
2017-11-16T04:55:07.642Z,80.57
2017-11-16T04:57:35.209Z,68.12
2017-11-16T05:00:02.684Z,75.43
2017-11-16T05:02:30.928Z,67.30
2017-11-16T05:04:58.403Z,64.32
2017-11-16T05:07:26.650Z,83.93
2017-11-16T05:09:54.161Z,75.60
2017-11-16T05:12:21.642Z,83.65
2017-11-16T05:14:49.156Z,69.62
2017-11-16T05:17:17.402Z,76.72
2017-11-16T05:19:44.874Z,65.37
2017-11-16T05:22:12.346Z,59.85
2017-11-16T05:24:40.608Z,68.70
2017-11-16T05:27:08.087Z,75.60
2017-11-16T05:29:36.331Z,63.60
2017-11-16T05:32:03.805Z,64.10
2017-11-16T05:34:32.042Z,55.03
2017-11-16T05:36:59.630Z,45.00
2017-11-16T05:39:27.104Z,58.78
2017-11-16T05:41:55.341Z,58.87
2017-11-16T05:44:22.814Z,49.03
2017-11-16T05:46:50.306Z,57.55
2017-11-16T05:49:17.823Z,45.63
2017-11-16T05:51:45.299Z,50.08
2017-11-16T05:54:13.562Z,52.88
2017-11-16T05:56:41.031Z,60.25
2017-11-16T05:59:09.274Z,49.88
2017-11-16T06:01:36.750Z,53.78
2017-11-16T06:04:04.226Z,60.83
2017-11-16T06:06:32.460Z,57.58
2017-11-16T06:09:00.039Z,58.97
2017-11-16T06:11:27.501Z,60.30
2017-11-16T06:13:54.970Z,46.20
2017-11-16T06:16:23.327Z,46.97
2017-11-16T06:18:50.787Z,59.85
2017-11-16T06:21:18.365Z,52.58
2017-11-16T06:23:46.605Z,55.40
2017-11-16T06:26:14.190Z,63.80
2017-11-16T06:28:41.682Z,47.38
2017-11-16T06:31:09.170Z,54.72
2017-11-16T06:33:36.643Z,65.00
2017-11-16T06:36:04.211Z,55.85
2017-11-16T06:38:31.692Z,57.28
2017-11-16T06:40:59.926Z,61.67
2017-11-16T06:43:27.405Z,50.33
2017-11-16T06:45:55.670Z,53.20
2017-11-16T06:48:23.144Z,53.92
2017-11-16T06:50:51.399Z,50.53
2017-11-16T06:53:18.857Z,64.20
2017-11-16T06:55:46.432Z,67.97
2017-11-16T06:58:13.908Z,71.25
2017-11-16T07:00:42.146Z,57.55
2017-11-16T07:03:09.610Z,62.30
2017-11-16T07:05:37.101Z,61.58
2017-11-16T07:08:05.330Z,66.95
2017-11-16T07:10:32.918Z,60.67
2017-11-16T07:13:01.165Z,72.68
2017-11-16T07:15:28.649Z,69.35
2017-11-16T07:17:56.135Z,79.30
2017-11-16T07:20:23.606Z,84.05
2017-11-16T07:22:51.074Z,73.35
2017-11-16T07:25:18.549Z,81.87
2017-11-16T07:27:46.076Z,84.45
2017-11-16T07:30:13.586Z,92.10
2017-11-16T07:32:41.148Z,84.03
2017-11-16T07:35:09.444Z,80.85
2017-11-16T07:37:36.989Z,90.60
2017-11-16T07:40:05.218Z,84.68
2017-11-16T07:42:32.686Z,112.65
2017-11-16T07:45:00.162Z,72.75
2017-11-16T07:47:27.656Z,87.90
2017-11-16T07:49:55.122Z,82.15
2017-11-16T07:52:22.599Z,84.05
2017-11-16T07:54:50.169Z,105.57
2017-11-16T07:57:17.706Z,95.55
2017-11-16T07:59:45.234Z,95.70
2017-11-16T08:02:13.479Z,78.10
2017-11-16T08:04:41.051Z,83.87
2017-11-16T08:07:09.372Z,85.40
2017-11-16T08:09:36.883Z,101.53
2017-11-16T08:12:04.373Z,108.03
2017-11-16T08:14:31.851Z,101.12
2017-11-16T08:16:59.332Z,101.65
2017-11-16T08:19:26.797Z,110.15
2017-11-16T08:21:54.316Z,108.97
2017-11-16T08:24:21.783Z,97.18
2017-11-16T08:26:49.260Z,99.05
2017-11-16T08:29:16.847Z,122.95
2017-11-16T08:31:44.324Z,119.37
2017-11-16T08:34:12.568Z,99.50
2017-11-16T08:36:40.057Z,100.43
2017-11-16T08:39:07.549Z,93.10
2017-11-16T08:41:35.022Z,98.12
2017-11-16T08:44:02.530Z,97.25
2017-11-16T08:46:32.301Z,78.87
2017-11-16T08:48:59.827Z,103.90
2017-11-16T08:51:27.316Z,91.43
2017-11-16T08:53:54.802Z,99.00
2017-11-16T08:56:23.066Z,89.57
2017-11-16T08:58:50.628Z,87.28
2017-11-16T09:01:18.128Z,96.68
2017-11-16T09:06:19.638Z,83.78
2017-11-16T09:08:47.116Z,92.00
2017-11-16T09:11:15.393Z,84.87
2017-11-16T09:13:43.658Z,82.88
2017-11-16T09:16:11.212Z,81.25
2017-11-16T09:18:38.692Z,84.28
2017-11-16T09:21:06.943Z,80.97
2017-11-16T09:23:34.497Z,72.50
2017-11-16T09:26:01.986Z,88.85
2017-11-16T09:28:30.231Z,73.75
2017-11-16T09:30:57.720Z,71.07
2017-11-16T09:33:25.268Z,75.78
2017-11-16T09:35:52.743Z,70.93
2017-11-16T09:38:20.215Z,78.55
2017-11-16T09:40:47.685Z,72.10
2017-11-16T09:43:15.162Z,73.40
2017-11-16T09:45:42.730Z,73.75
2017-11-16T09:48:10.551Z,80.85
2017-11-16T09:50:38.024Z,78.80
2017-11-16T09:53:05.501Z,78.97
2017-11-16T09:55:33.124Z,77.30
2017-11-16T09:58:00.637Z,78.53
2017-11-16T10:00:28.881Z,78.30
2017-11-16T10:02:56.369Z,74.03
2017-11-16T10:05:24.645Z,68.93
2017-11-16T10:07:52.904Z,74.50
2017-11-16T10:10:20.472Z,68.45
2017-11-16T10:12:48.717Z,72.15
2017-11-16T10:15:16.216Z,73.78
2017-11-16T10:17:44.531Z,87.53
2017-11-16T10:20:12.048Z,77.68
2017-11-16T10:22:40.304Z,84.32
2017-11-16T10:25:07.878Z,80.28
2017-11-16T10:27:35.348Z,77.87
2017-11-16T10:30:03.599Z,97.12
2017-11-16T10:32:31.092Z,101.10
2017-11-16T10:34:58.572Z,101.03
2017-11-16T10:37:26.043Z,96.63
2017-11-16T10:39:53.573Z,96.00
2017-11-16T10:42:21.051Z,85.12
2017-11-16T10:44:48.580Z,86.63
2017-11-16T10:47:16.070Z,77.85
2017-11-16T10:49:43.561Z,76.22
2017-11-16T10:52:11.047Z,83.75
2017-11-16T10:54:38.612Z,66.47
2017-11-16T10:57:06.155Z,79.87
2017-11-16T10:59:34.399Z,87.65
2017-11-16T11:02:01.879Z,79.57
2017-11-16T11:04:29.348Z,76.15
2017-11-16T11:06:57.600Z,57.97
2017-11-16T11:09:25.068Z,58.45
2017-11-16T11:11:52.542Z,63.60
2017-11-16T11:14:20.083Z,63.50
2017-11-16T11:16:47.655Z,63.83
2017-11-16T11:19:15.944Z,52.45
2017-11-16T11:21:43.491Z,50.65
2017-11-16T11:24:11.743Z,52.15
2017-11-16T11:26:39.223Z,50.65
2017-11-16T11:29:07.498Z,58.22
2017-11-16T11:31:35.738Z,50.63
2017-11-16T11:34:03.224Z,51.10
2017-11-16T11:36:31.588Z,51.33
2017-11-16T11:38:59.057Z,47.92
2017-11-16T11:41:27.314Z,48.38
2017-11-16T11:43:54.875Z,46.37
2017-11-16T11:46:22.356Z,47.42
2017-11-16T11:48:50.590Z,47.40
2017-11-16T11:51:18.162Z,53.42
2017-11-16T11:53:45.659Z,52.45
2017-11-16T11:56:13.159Z,52.33
2017-11-16T11:58:40.760Z,50.22
2017-11-16T12:01:08.229Z,49.30
2017-11-16T12:03:35.725Z,49.47
2017-11-16T12:06:03.199Z,50.17
2017-11-16T12:08:30.781Z,59.70
2017-11-16T12:10:59.079Z,49.85
2017-11-16T12:13:26.559Z,50.28
2017-11-16T12:15:54.184Z,44.13
2017-11-16T12:18:22.432Z,41.97
2017-11-16T12:20:50.158Z,42.25
2017-11-16T12:23:17.661Z,40.55
2017-11-16T12:25:45.221Z,36.22
2017-11-16T12:28:12.776Z,39.65
2017-11-16T12:30:40.260Z,36.25
2017-11-16T12:33:07.801Z,29.73
2017-11-16T12:35:35.354Z,35.10
2017-11-16T12:38:02.831Z,26.58
2017-11-16T12:40:31.086Z,32.30
2017-11-16T12:43:00.133Z,34.13
2017-11-16T12:45:27.605Z,30.52
2017-11-16T12:47:55.090Z,32.97
2017-11-16T12:50:22.554Z,34.60
2017-11-16T12:52:50.120Z,33.65
2017-11-16T12:55:18.380Z,31.12
2017-11-16T12:57:45.946Z,29.20
2017-11-16T13:00:13.505Z,30.98
2017-11-16T13:02:41.798Z,32.35
2017-11-16T13:05:10.038Z,30.88
2017-11-16T13:07:37.615Z,30.37
2017-11-16T13:10:05.177Z,33.40
2017-11-16T13:12:32.683Z,32.38
2017-11-16T13:15:00.204Z,33.30
2017-11-16T13:17:27.800Z,30.42
2017-11-16T13:19:55.303Z,33.10
2017-11-16T13:22:22.775Z,31.55
2017-11-16T13:24:51.358Z,37.33
2017-11-16T13:27:19.599Z,36.97
2017-11-16T13:29:47.197Z,32.03
2017-11-16T13:32:15.617Z,31.90
2017-11-16T13:34:43.119Z,34.40
2017-11-16T13:37:10.599Z,36.75
2017-11-16T13:39:38.087Z,30.20
2017-11-16T13:42:05.563Z,32.10
2017-11-16T13:44:33.053Z,32.78
2017-11-16T13:47:01.295Z,37.22
2017-11-16T13:49:28.778Z,34.17
2017-11-16T13:51:56.387Z,35.05
2017-11-16T13:54:23.871Z,31.67
2017-11-16T13:56:51.339Z,30.70
2017-11-16T13:59:18.833Z,30.27
2017-11-16T14:01:46.297Z,34.60
2017-11-16T14:04:13.771Z,27.83
2017-11-16T14:06:41.266Z,40.63
2017-11-16T14:09:08.750Z,29.00
2017-11-16T14:11:36.999Z,34.00
2017-11-16T14:14:04.470Z,36.75
2017-11-16T14:16:32.081Z,35.13
2017-11-16T14:18:59.551Z,35.50
2017-11-16T14:21:27.025Z,35.40
2017-11-16T14:23:54.593Z,39.05
2017-11-16T14:26:22.074Z,35.53
2017-11-16T14:28:50.386Z,38.03
2017-11-16T14:31:17.870Z,30.48
2017-11-16T14:33:45.349Z,32.97
2017-11-16T14:36:12.822Z,34.10
2017-11-16T14:38:41.058Z,34.33
2017-11-16T14:41:08.590Z,35.03
2017-11-16T14:43:36.058Z,33.42
2017-11-16T14:46:03.528Z,28.95
2017-11-16T14:48:31.009Z,32.65
2017-11-16T14:50:58.578Z,29.52
2017-11-16T14:53:26.807Z,28.00
2017-11-16T14:55:54.297Z,35.65
2017-11-16T14:58:21.776Z,29.45
2017-11-16T15:00:50.015Z,26.62
2017-11-16T15:03:17.610Z,25.42
2017-11-16T15:05:45.865Z,30.27
2017-11-16T15:08:13.414Z,28.08
2017-11-16T15:10:40.979Z,28.95
2017-11-16T15:13:08.455Z,27.87
2017-11-16T15:15:36.682Z,29.98
2017-11-16T15:18:04.184Z,29.15
2017-11-16T15:20:32.453Z,34.15
2017-11-16T15:23:00.014Z,27.30
2017-11-16T15:25:27.496Z,29.70
2017-11-16T15:27:55.719Z,36.35
2017-11-16T15:30:23.189Z,33.22
2017-11-16T15:32:50.661Z,32.10
2017-11-16T15:35:18.919Z,29.77
2017-11-16T15:37:46.384Z,30.88
2017-11-16T15:40:13.862Z,45.05
2017-11-16T15:42:42.106Z,33.80
2017-11-16T15:45:09.593Z,29.77
2017-11-16T15:47:37.827Z,31.52
2017-11-16T15:50:05.358Z,30.90
2017-11-16T15:52:32.862Z,29.15
2017-11-16T15:55:00.337Z,38.80
2017-11-16T15:57:28.575Z,37.22
2017-11-16T15:59:56.207Z,33.20
2017-11-16T16:02:23.676Z,32.97
2017-11-16T16:04:51.139Z,30.30
2017-11-16T16:07:18.621Z,32.50
2017-11-16T16:09:46.098Z,28.33
2017-11-16T16:12:14.411Z,27.73
2017-11-16T16:14:41.874Z,34.17
2017-11-16T16:17:09.341Z,32.35
2017-11-16T16:19:37.291Z,32.13
2017-11-16T16:22:04.815Z,32.42
2017-11-16T16:24:33.039Z,30.10
2017-11-16T16:27:00.514Z,24.65
2017-11-16T16:29:27.989Z,29.45
2017-11-16T16:31:56.983Z,28.90
2017-11-16T16:34:24.448Z,26.40
2017-11-16T16:36:51.918Z,31.02
2017-11-16T16:39:20.275Z,31.02
2017-11-16T16:41:47.749Z,29.67
2017-11-16T16:44:16.055Z,29.95
2017-11-16T16:46:43.519Z,25.62
2017-11-16T16:49:11.004Z,31.33
2017-11-16T16:51:38.525Z,29.63
2017-11-16T16:54:06.016Z,27.48
2017-11-16T16:56:33.484Z,32.72
2017-11-16T16:59:00.976Z,29.42
2017-11-16T17:01:28.463Z,29.80
2017-11-16T17:03:55.925Z,25.42
2017-11-16T17:06:23.410Z,26.98
2017-11-16T17:08:50.974Z,25.77
2017-11-16T17:11:18.553Z,30.25
2017-11-16T17:13:46.063Z,30.65
2017-11-16T17:16:13.592Z,27.60
2017-11-16T17:18:41.110Z,28.95
2017-11-16T17:21:08.587Z,30.83
2017-11-16T17:23:36.840Z,29.48
2017-11-16T17:26:04.317Z,26.65
2017-11-16T17:28:32.576Z,24.87
2017-11-16T17:31:00.053Z,30.08
2017-11-16T17:33:28.906Z,29.08
2017-11-16T17:35:56.378Z,24.90
2017-11-16T17:38:23.852Z,29.65
2017-11-16T17:40:52.103Z,28.30
2017-11-16T17:43:19.621Z,31.45
2017-11-16T17:45:47.151Z,26.40
2017-11-16T17:48:14.683Z,25.90
2017-11-16T17:50:42.234Z,23.73
2017-11-16T17:53:10.463Z,32.60
2017-11-16T17:55:38.027Z,28.98
2017-11-16T17:58:05.529Z,29.35
2017-11-16T18:00:33.828Z,25.98
2017-11-16T18:03:02.096Z,28.33
2017-11-16T18:05:29.552Z,29.37
2017-11-16T18:07:57.018Z,29.15
2017-11-16T18:10:25.256Z,30.62
2017-11-16T18:12:52.764Z,33.10
2017-11-16T18:15:20.295Z,30.40
2017-11-16T18:17:47.855Z,33.03
2017-11-16T18:20:16.117Z,32.72
2017-11-16T18:22:43.675Z,34.10
2017-11-16T18:25:11.233Z,35.33
2017-11-16T18:27:38.702Z,35.40
2017-11-16T18:30:06.175Z,36.90
2017-11-16T18:32:34.431Z,28.35
2017-11-16T18:35:02.039Z,35.83
2017-11-16T18:37:29.548Z,33.50
2017-11-16T18:39:58.549Z,29.40
2017-11-16T18:42:26.919Z,40.05
2017-11-16T18:44:54.491Z,36.58
2017-11-16T18:47:22.726Z,36.05
2017-11-16T18:49:50.273Z,48.30
2017-11-16T18:52:17.812Z,44.65
2017-11-16T18:54:45.274Z,38.72
2017-11-16T18:57:12.791Z,40.50
2017-11-16T18:59:40.334Z,48.92
2017-11-16T19:02:07.839Z,41.70
2017-11-16T19:04:35.400Z,40.85
2017-11-16T19:07:02.991Z,41.47
2017-11-16T19:09:30.749Z,43.40
2017-11-16T19:11:58.233Z,40.97
2017-11-16T19:14:25.761Z,44.50
2017-11-16T19:16:53.355Z,39.92
2017-11-16T19:19:20.986Z,38.42
2017-11-16T19:21:48.474Z,40.60
2017-11-16T19:24:16.146Z,44.22
2017-11-16T19:26:44.412Z,35.65
2017-11-16T19:29:11.872Z,40.03
2017-11-16T19:31:40.105Z,37.15
2017-11-16T19:34:07.596Z,44.55
2017-11-16T19:36:35.163Z,43.45
2017-11-16T19:39:02.650Z,38.63
2017-11-16T19:41:30.109Z,46.88
2017-11-16T19:43:57.634Z,37.33
2017-11-16T19:46:25.102Z,39.00
2017-11-16T19:48:53.349Z,47.13
2017-11-16T19:51:20.823Z,40.50
2017-11-16T19:53:49.057Z,46.20
2017-11-16T19:56:16.542Z,42.38
2017-11-16T19:58:44.002Z,49.90
2017-11-16T20:01:11.518Z,48.95
2017-11-16T20:03:38.987Z,45.97
2017-11-16T20:06:06.569Z,54.17
2017-11-16T20:08:34.030Z,47.75
2017-11-16T20:11:01.494Z,46.47
2017-11-16T20:13:29.511Z,37.85
2017-11-16T20:15:57.028Z,45.17
2017-11-16T20:18:24.599Z,46.78
2017-11-16T20:20:52.848Z,38.22
2017-11-16T20:23:20.320Z,48.45
2017-11-16T20:25:48.663Z,44.83
2017-11-16T20:28:16.135Z,47.90
2017-11-16T20:30:43.603Z,45.80
2017-11-16T20:33:11.091Z,47.67
2017-11-16T20:35:38.550Z,43.35
2017-11-16T20:38:07.924Z,53.25
2017-11-16T20:40:39.059Z,48.95
2017-11-16T20:43:17.584Z,44.15
2017-11-16T20:45:45.985Z,52.38
2017-11-16T20:48:20.024Z,47.08
2017-11-16T20:50:53.322Z,50.05
2017-11-16T20:53:26.635Z,52.17
2017-11-16T20:55:54.223Z,53.45
2017-11-16T20:58:22.570Z,52.60
2017-11-16T21:00:50.147Z,47.17
2017-11-16T21:03:17.856Z,52.05
2017-11-16T21:05:45.483Z,53.72
2017-11-16T21:08:13.815Z,50.70
2017-11-16T21:10:41.428Z,46.17
2017-11-16T21:13:09.776Z,50.78
2017-11-16T21:15:37.379Z,49.70
2017-11-16T21:18:04.958Z,50.20
2017-11-16T21:20:32.552Z,46.13
2017-11-16T21:23:00.194Z,49.58
2017-11-16T21:25:27.780Z,42.97
2017-11-16T21:27:55.327Z,43.00
2017-11-16T21:30:23.007Z,44.28
2017-11-16T21:32:50.605Z,48.75
2017-11-16T21:35:18.212Z,47.75
2017-11-16T21:37:45.932Z,48.60
2017-11-16T21:40:13.496Z,40.92
2017-11-16T21:42:40.964Z,49.47
2017-11-16T21:45:08.429Z,42.88
2017-11-16T21:47:35.905Z,48.53
2017-11-16T21:50:04.203Z,51.97
2017-11-16T21:52:32.454Z,51.95
2017-11-16T21:55:00.020Z,44.05
2017-11-16T21:57:28.662Z,44.25
2017-11-16T21:59:56.175Z,49.85
2017-11-16T22:02:23.640Z,48.42
2017-11-16T22:04:51.867Z,46.05
2017-11-16T22:07:20.113Z,44.92
2017-11-16T22:09:47.583Z,47.33
2017-11-16T22:12:15.101Z,43.28
2017-11-16T22:14:42.645Z,52.50
2017-11-16T22:17:10.212Z,50.30
2017-11-16T22:19:37.696Z,53.63
2017-11-16T22:22:05.227Z,58.22
2017-11-16T22:24:32.692Z,48.58
2017-11-16T22:27:00.958Z,54.45
2017-11-16T22:29:28.565Z,50.38
2017-11-16T22:31:56.083Z,46.05
2017-11-16T22:34:24.320Z,53.15
2017-11-16T22:36:51.807Z,48.72
2017-11-16T22:39:19.268Z,57.17
2017-11-16T22:41:47.507Z,54.83
2017-11-16T22:44:14.978Z,53.72
2017-11-16T22:46:42.437Z,56.65
2017-11-16T22:49:09.898Z,46.42
2017-11-16T22:51:37.486Z,52.17
2017-11-16T22:54:05.800Z,49.65
2017-11-16T22:56:33.312Z,53.30
2017-11-16T22:59:01.567Z,49.80
2017-11-16T23:01:29.102Z,51.37
2017-11-16T23:03:56.584Z,51.95
2017-11-16T23:06:24.060Z,55.17
2017-11-16T23:08:52.302Z,56.35
2017-11-16T23:11:19.762Z,58.22
2017-11-16T23:13:47.249Z,58.95
2017-11-16T23:16:15.499Z,60.20
2017-11-16T23:18:43.067Z,57.50
2017-11-16T23:21:10.543Z,49.13
2017-11-16T23:23:38.086Z,57.25
2017-11-16T23:26:05.663Z,54.90
2017-11-16T23:28:33.901Z,54.90
2017-11-16T23:31:01.372Z,51.85
2017-11-16T23:33:29.263Z,53.28
2017-11-16T23:35:57.494Z,53.92
2017-11-16T23:38:24.954Z,56.55
2017-11-16T23:40:52.436Z,54.28
2017-11-16T23:43:20.706Z,63.13
2017-11-16T23:45:48.938Z,57.13
2017-11-16T23:48:16.407Z,61.70
2017-11-16T23:50:43.932Z,60.00
2017-11-16T23:53:12.133Z,59.13
2017-11-16T23:55:39.643Z,51.70
2017-11-16T23:58:07.955Z,57.58
